createdAt,value
2022-07-30T05:47:54.689Z,0
2022-07-30T05:52:55.061Z,0
2022-07-30T05:57:55.334Z,22
2022-07-30T06:02:54.653Z,22
2022-07-30T06:07:55.013Z,22
2022-07-30T06:12:55.185Z,22
2022-07-30T06:18:02.577Z,22
2022-07-30T06:22:54.927Z,22
2022-07-30T06:27:54.962Z,22
2022-07-30T06:32:55.197Z,22
2022-07-30T06:38:08.083Z,135
2022-07-30T06:42:55.339Z,135
2022-07-30T06:47:55.474Z,135
2022-07-30T06:52:54.754Z,135
2022-07-30T06:57:55.126Z,135
2022-07-30T07:02:55.163Z,135
2022-07-30T07:08:00.012Z,135
2022-07-30T07:12:55.776Z,135
2022-07-30T07:17:55.104Z,135
2022-07-30T07:22:57.692Z,135
2022-07-30T07:28:13.810Z,158
2022-07-30T07:32:55.091Z,158
2022-07-30T07:37:55.263Z,270
2022-07-30T07:42:55.841Z,270
2022-07-30T07:47:55.033Z,202
2022-07-30T07:52:56.081Z,202
2022-07-30T07:57:55.006Z,202
2022-07-30T08:02:56.444Z,202
2022-07-30T08:07:55.662Z,202
2022-07-30T08:12:54.709Z,202
2022-07-30T08:17:54.882Z,180
2022-07-30T08:22:57.213Z,180
2022-07-30T08:27:56.070Z,270
2022-07-30T08:32:55.014Z,270
2022-07-30T08:37:55.116Z,202
2022-07-30T08:42:55.359Z,202
2022-07-30T08:47:55.610Z,270
2022-07-30T08:52:54.938Z,270
2022-07-30T08:57:55.175Z,270
2022-07-30T09:02:55.572Z,270
2022-07-30T09:07:54.980Z,248
2022-07-30T09:12:55.139Z,248
2022-07-30T09:17:55.281Z,292
2022-07-30T09:22:55.240Z,292
2022-07-30T09:27:55.463Z,270
2022-07-30T09:32:55.216Z,270
2022-07-30T09:37:54.763Z,270
2022-07-30T09:42:54.933Z,270
2022-07-30T09:47:55.304Z,270
2022-07-30T09:52:57.320Z,270
2022-07-30T09:57:58.834Z,292
2022-07-30T10:02:55.178Z,292
2022-07-30T10:07:55.507Z,292
2022-07-30T10:12:55.654Z,292
2022-07-30T10:17:55.098Z,270
2022-07-30T10:22:55.770Z,270
2022-07-30T10:27:58.353Z,270
2022-07-30T10:32:55.440Z,270
2022-07-30T10:37:55.903Z,338
2022-07-30T10:42:55.188Z,338
2022-07-30T10:47:55.206Z,270
2022-07-30T10:52:56.051Z,270
2022-07-30T10:57:56.049Z,292
2022-07-30T11:02:55.756Z,292
2022-07-30T11:07:55.161Z,315
2022-07-30T11:12:55.286Z,315
2022-07-30T11:17:55.649Z,270
2022-07-30T11:22:57.639Z,270
2022-07-30T11:27:55.777Z,315
2022-07-30T11:32:56.523Z,315
2022-07-30T11:37:56.009Z,270
2022-07-30T11:42:55.243Z,270
2022-07-30T11:47:55.390Z,338
2022-07-30T11:52:55.501Z,338
2022-07-30T11:57:54.814Z,22
2022-07-30T12:02:54.919Z,22
2022-07-30T12:07:55.204Z,0
2022-07-30T12:12:55.515Z,0
2022-07-30T12:18:26.268Z,68
2022-07-30T12:22:55.415Z,68
2022-07-30T12:27:55.664Z,45
2022-07-30T12:32:55.707Z,45
2022-07-30T12:37:54.903Z,315
2022-07-30T12:42:55.091Z,315
2022-07-30T12:47:55.401Z,338
2022-07-30T12:52:55.812Z,338
2022-07-30T12:57:55.082Z,0
2022-07-30T13:02:55.129Z,0
2022-07-30T13:07:55.307Z,22
2022-07-30T13:12:55.695Z,22
2022-07-30T13:17:54.825Z,315
2022-07-30T13:23:02.214Z,315
2022-07-30T13:27:55.329Z,0
2022-07-30T13:32:55.672Z,0
2022-07-30T13:37:55.817Z,292
2022-07-30T13:42:54.949Z,292
2022-07-30T13:47:55.069Z,292
2022-07-30T13:53:02.751Z,292
2022-07-30T13:57:55.229Z,315
2022-07-30T14:02:55.493Z,315
2022-07-30T14:07:55.963Z,315
2022-07-30T14:12:55.059Z,315
2022-07-30T14:17:56.920Z,292
2022-07-30T14:22:55.021Z,292
2022-07-30T14:27:55.231Z,338
2022-07-30T14:33:04.610Z,338
2022-07-30T14:37:55.109Z,292
2022-07-30T14:42:56.397Z,292
2022-07-30T14:47:55.298Z,0
2022-07-30T14:52:54.959Z,0
2022-07-30T14:57:55.337Z,315
2022-07-30T15:02:55.539Z,315
2022-07-30T15:07:55.765Z,338
2022-07-30T15:12:55.272Z,338
2022-07-30T15:17:55.686Z,315
2022-07-30T15:22:55.019Z,315
2022-07-30T15:27:55.426Z,0
2022-07-30T15:32:55.424Z,0
2022-07-30T15:37:55.737Z,0
2022-07-30T15:42:55.073Z,0
2022-07-30T15:47:55.612Z,292
2022-07-30T15:52:55.945Z,292
2022-07-30T15:57:55.237Z,338
2022-07-30T16:02:55.011Z,338
2022-07-30T16:07:55.546Z,270
2022-07-30T16:12:56.778Z,270
2022-07-30T16:17:55.305Z,292
2022-07-30T16:22:55.579Z,292
2022-07-30T16:27:55.800Z,315
2022-07-30T16:32:56.009Z,315
2022-07-30T16:37:55.199Z,270
2022-07-30T16:42:55.713Z,270
2022-07-30T16:47:55.875Z,315
2022-07-30T16:52:55.099Z,315
2022-07-30T16:57:55.291Z,22
2022-07-30T17:02:56.806Z,22
2022-07-30T17:07:55.163Z,112
2022-07-30T17:12:57.432Z,112
2022-07-30T17:17:55.064Z,68
2022-07-30T17:22:55.405Z,68
2022-07-30T17:27:55.510Z,90
2022-07-30T17:32:55.588Z,90
2022-07-30T17:37:55.665Z,90
2022-07-30T17:42:55.864Z,90
2022-07-30T17:47:55.990Z,90
2022-07-30T17:52:55.192Z,90
2022-07-30T17:57:55.422Z,135
2022-07-30T18:02:55.707Z,135
2022-07-30T18:07:55.899Z,112
2022-07-30T18:12:55.795Z,112
2022-07-30T18:17:55.151Z,112
2022-07-30T18:22:55.397Z,112
2022-07-30T18:27:55.939Z,112
2022-07-30T18:32:55.022Z,112
2022-07-30T18:37:55.221Z,112
2022-07-30T18:42:55.406Z,112
2022-07-30T18:47:55.508Z,112
2022-07-30T18:52:55.756Z,112
2022-07-30T18:57:55.939Z,112
2022-07-30T19:02:55.080Z,112
